Time;durP1;ratioP1;P1;durP2;ratioP2;P2;SDS_P1;SDS_P2;PMS_P1;PMS_P2;Temp;Humidity;BMP_temperature;BMP_pressure;BME280_temperature;BME280_humidity;BME280_pressure;Samples;Min_cycle;Max_cycle;Signal;HPM_P1;HPM_P2
2023/07/28 00:02:07;;;;;;;3.17;2.80;;;;;;;23.37;56.54;98002.47;6920071;28;20614;-84
2023/07/28 00:05:28;;;;;;;4.00;3.13;;;;;;;23.03;57.65;98015.75;6920652;28;20318;-84
2023/07/28 00:08:50;;;;;;;4.43;3.60;;;;;;;22.59;59.56;97999.78;6920181;28;20721;-84
2023/07/28 00:12:11;;;;;;;3.60;3.30;;;;;;;22.93;58.65;98013.19;6926426;28;20241;-83
2023/07/28 00:15:33;;;;;;;4.90;3.57;;;;;;;22.75;58.87;98014.91;6911633;28;20201;-83
2023/07/28 00:18:55;;;;;;;4.60;3.50;;;;;;;22.94;58.36;98012.88;6908313;28;20771;-83
2023/07/28 00:22:17;;;;;;;3.77;3.40;;;;;;;22.49;59.58;98018.38;6900837;28;20273;-83
2023/07/28 00:25:38;;;;;;;3.47;3.07;;;;;;;22.23;60.27;98017.94;6900222;28;20224;-84
2023/07/28 00:29:00;;;;;;;4.00;3.60;;;;;;;22.40;59.51;97990.75;6901115;28;20234;-82
2023/07/28 00:32:21;;;;;;;3.73;3.43;;;;;;;22.26;59.99;98000.88;6907601;28;20201;-83
2023/07/28 00:35:44;;;;;;;4.33;3.17;;;;;;;22.05;59.63;97946.56;6904629;28;20271;-84
2023/07/28 00:39:06;;;;;;;4.30;3.17;;;;;;;22.63;59.02;98009.06;6904736;28;20731;-83
2023/07/28 00:42:27;;;;;;;3.70;3.17;;;;;;;22.43;58.73;98009.41;6904432;28;20284;-83
2023/07/28 00:45:49;;;;;;;3.67;3.27;;;;;;;22.46;58.13;97984.09;6904103;28;20319;-83
2023/07/28 00:49:10;;;;;;;3.63;3.33;;;;;;;22.50;58.14;97995.28;6905332;28;20205;-83
2023/07/28 00:52:34;;;;;;;6.43;3.40;;;;;;;22.13;59.20;97995.34;6905222;28;20234;-83
2023/07/28 00:55:56;;;;;;;4.13;3.00;;;;;;;22.09;58.85;97991.53;6905069;28;20621;-83
2023/07/28 00:59:19;;;;;;;3.40;3.10;;;;;;;22.10;58.88;97979.44;6901492;28;20313;-82
2023/07/28 01:02:41;;;;;;;6.53;4.07;;;;;;;22.25;58.84;98007.47;6916394;28;20701;-83
2023/07/28 01:06:12;;;;;;;3.77;3.13;;;;;;;22.37;58.21;98007.81;6903231;28;20743;-83
2023/07/28 01:09:42;;;;;;;3.97;3.13;;;;;;;22.37;58.02;97993.28;6905293;28;20312;-83
2023/07/28 01:13:04;;;;;;;3.30;2.70;;;;;;;22.52;57.80;97996.63;6904852;28;20297;-83
2023/07/28 01:16:25;;;;;;;3.63;3.33;;;;;;;22.47;57.46;97987.63;6904903;28;20245;-83
2023/07/28 01:19:47;;;;;;;3.83;2.93;;;;;;;22.60;56.82;97981.38;6903657;28;20775;-83
2023/07/28 01:23:10;;;;;;;7.07;2.90;;;;;;;22.56;57.45;97992.16;6900742;28;20249;-83
2023/07/28 01:26:34;;;;;;;3.50;3.10;;;;;;;22.69;56.50;97988.63;6877895;28;20240;-83
2023/07/28 01:29:56;;;;;;;3.20;2.90;;;;;;;22.89;56.38;97984.69;6873850;28;20316;-83
2023/07/28 01:33:17;;;;;;;5.30;2.97;;;;;;;23.14;54.93;97978.69;6874460;28;20280;-83
2023/07/28 01:36:39;;;;;;;3.47;2.93;;;;;;;23.27;54.37;97984.22;6883815;28;20303;-84
2023/07/28 01:40:01;;;;;;;3.87;3.30;;;;;;;22.97;54.75;97945.47;6886628;28;20307;-84
2023/07/28 01:43:24;;;;;;;2.97;2.77;;;;;;;23.21;54.28;97979.13;6887527;28;20205;-84
2023/07/28 01:46:45;;;;;;;3.27;2.97;;;;;;;22.69;56.16;97972.13;6867869;28;21002;-85
2023/07/28 01:50:07;;;;;;;5.37;3.20;;;;;;;22.76;55.67;97972.53;6864958;28;20305;-85
2023/07/28 01:53:29;;;;;;;3.43;2.90;;;;;;;22.59;56.54;97969.56;6870309;28;20876;-84
2023/07/28 01:56:50;;;;;;;5.53;3.00;;;;;;;22.38;57.05;97943.56;6917544;28;20346;-85
2023/07/28 02:00:14;;;;;;;3.27;2.97;;;;;;;22.77;56.07;97956.88;6917768;28;20231;-85
2023/07/28 02:03:35;;;;;;;3.53;3.23;;;;;;;22.21;57.38;97976.25;6920582;28;20237;-83
2023/07/28 02:06:57;;;;;;;3.47;2.90;;;;;;;22.22;58.02;97960.56;6924248;28;20348;-83
2023/07/28 02:10:18;;;;;;;3.50;2.93;;;;;;;22.01;58.42;97960.06;6924705;28;20695;-83
2023/07/28 02:13:40;;;;;;;5.27;3.10;;;;;;;22.49;57.10;97960.69;6925087;28;20312;-83
2023/07/28 02:17:03;;;;;;;3.10;2.90;;;;;;;21.66;59.90;97965.28;6924629;28;20286;-84
2023/07/28 02:20:24;;;;;;;3.50;2.80;;;;;;;21.90;59.09;97958.59;6924100;28;20258;-84
2023/07/28 02:23:46;;;;;;;3.33;2.87;;;;;;;22.97;55.88;97957.31;6922994;28;20242;-83
2023/07/28 02:27:07;;;;;;;5.00;3.40;;;;;;;22.36;57.39;97948.50;6923314;28;20213;-84
2023/07/28 02:30:29;;;;;;;3.50;3.17;;;;;;;21.84;59.67;97948.81;6924119;28;20236;-83
2023/07/28 02:33:51;;;;;;;4.17;3.13;;;;;;;22.38;58.17;97968.28;6892447;28;20675;-83
2023/07/28 02:37:15;;;;;;;3.80;3.37;;;;;;;21.94;58.76;97962.41;6868426;28;20327;-84
2023/07/28 02:40:36;;;;;;;4.17;3.40;;;;;;;22.16;59.00;97970.84;6868973;28;20229;-83
2023/07/28 02:43:58;;;;;;;5.13;3.57;;;;;;;22.23;58.52;97975.91;6869023;28;20299;-83
2023/07/28 02:47:19;;;;;;;6.50;3.37;;;;;;;21.93;59.97;97979.97;6867815;28;20212;-83
2023/07/28 02:50:48;;;;;;;3.30;3.00;;;;;;;22.40;58.39;97984.44;6868394;28;20386;-84
2023/07/28 02:54:09;;;;;;;3.57;3.27;;;;;;;22.29;57.81;97992.03;6865250;28;20259;-85
2023/07/28 02:57:31;;;;;;;4.17;2.87;;;;;;;22.41;57.40;98014.34;6862264;28;20251;-84
2023/07/28 03:00:52;;;;;;;7.70;4.00;;;;;;;21.17;61.27;97998.53;6862405;28;20323;-84
2023/07/28 03:04:14;;;;;;;5.37;3.20;;;;;;;20.48;63.93;98013.78;6862848;28;20818;-84
2023/07/28 03:07:37;;;;;;;3.70;3.40;;;;;;;21.32;62.10;97997.53;6862734;28;20633;-85
2023/07/28 03:10:58;;;;;;;3.60;3.20;;;;;;;21.83;60.28;98024.03;6862684;28;20358;-84
2023/07/28 03:14:20;;;;;;;3.67;3.30;;;;;;;21.75;60.04;98021.97;6870233;28;20657;-82
2023/07/28 03:17:41;;;;;;;5.10;3.60;;;;;;;22.15;58.46;98035.09;6870432;28;20642;-83
2023/07/28 03:21:03;;;;;;;3.60;3.30;;;;;;;22.21;58.35;98044.06;6868464;28;20369;-83
2023/07/28 03:24:26;;;;;;;4.07;3.67;;;;;;;21.90;58.97;98040.16;6870112;28;20324;-84
2023/07/28 03:27:47;;;;;;;6.00;3.97;;;;;;;21.92;58.74;98043.41;6861917;28;20199;-84
2023/07/28 03:31:09;;;;;;;4.37;3.87;;;;;;;21.52;60.29;98041.16;6862386;28;20282;-84
2023/07/28 03:34:30;;;;;;;4.13;3.80;;;;;;;21.74;60.01;98053.25;6862539;28;20737;-83
2023/07/28 03:37:52;;;;;;;4.57;3.60;;;;;;;21.62;59.94;98017.19;6861696;28;20276;-84
2023/07/28 03:41:15;;;;;;;10.60;4.20;;;;;;;21.77;60.58;98065.59;6862855;28;20301;-84
2023/07/28 03:44:37;;;;;;;5.10;3.80;;;;;;;21.89;60.09;98072.25;6865960;28;20383;-83
2023/07/28 03:47:59;;;;;;;4.67;4.17;;;;;;;21.56;60.75;98072.41;6868352;28;20238;-83
2023/07/28 03:51:20;;;;;;;4.17;3.77;;;;;;;21.84;59.74;98077.81;6868245;28;20230;-83
2023/07/28 03:54:54;;;;;;;4.30;3.70;;;;;;;21.73;59.93;98076.31;6869264;28;20273;-83
2023/07/28 03:58:17;;;;;;;5.00;3.87;;;;;;;21.51;60.85;98089.75;6868178;28;20213;-83
2023/07/28 04:01:38;;;;;;;5.73;3.23;;;;;;;21.74;60.04;98088.94;6867631;28;20373;-83
2023/07/28 04:05:00;;;;;;;5.37;4.10;;;;;;;21.27;61.26;98094.41;6866637;28;20225;-83
2023/07/28 04:08:21;;;;;;;5.30;3.70;;;;;;;21.00;63.02;98093.31;6865918;28;20248;-83
2023/07/28 04:11:43;;;;;;;4.87;4.37;;;;;;;21.09;63.63;98091.56;6867503;28;20261;-83
2023/07/28 04:15:07;;;;;;;4.67;3.80;;;;;;;21.57;61.60;98088.56;6868109;28;20260;-83
2023/07/28 04:18:29;;;;;;;4.53;3.73;;;;;;;21.80;60.80;98090.50;6866367;28;20273;-82
2023/07/28 04:21:50;;;;;;;4.53;3.97;;;;;;;21.60;60.50;98079.72;6867052;28;20364;-83
2023/07/28 04:25:12;;;;;;;3.60;3.30;;;;;;;21.55;61.39;98073.50;6867330;28;20244;-82
2023/07/28 04:28:33;;;;;;;6.67;3.57;;;;;;;21.49;60.79;98072.72;6870418;28;20299;-83
2023/07/28 04:31:56;;;;;;;4.73;3.73;;;;;;;21.64;60.87;98061.59;6874716;28;20307;-83
2023/07/28 04:35:18;;;;;;;3.63;3.17;;;;;;;21.77;60.58;98068.31;6867808;28;20231;-83
2023/07/28 04:38:39;;;;;;;6.53;3.67;;;;;;;21.80;60.73;98081.44;6871761;28;20238;-82
2023/07/28 04:42:00;;;;;;;4.30;3.30;;;;;;;21.97;59.88;98062.56;6867887;28;20708;-83
2023/07/28 04:45:22;;;;;;;4.90;3.33;;;;;;;21.87;60.37;98070.91;6866600;28;20290;-82
2023/07/28 04:48:45;;;;;;;4.77;3.50;;;;;;;21.87;60.98;98055.28;6865994;28;20201;-82
2023/07/28 04:52:07;;;;;;;4.10;3.70;;;;;;;21.94;60.83;98055.72;6871056;28;20231;-83
2023/07/28 04:55:29;;;;;;;4.37;3.97;;;;;;;22.07;60.73;98065.16;6872709;28;20273;-83
2023/07/28 04:58:51;;;;;;;6.40;3.70;;;;;;;21.76;61.12;98056.53;6870681;28;20205;-84
2023/07/28 05:02:13;;;;;;;4.07;3.70;;;;;;;21.99;61.34;98071.28;6865472;28;20741;-84
2023/07/28 05:05:36;;;;;;;4.33;3.93;;;;;;;21.58;61.45;98059.19;6862620;28;20296;-84
2023/07/28 05:08:57;;;;;;;4.37;3.47;;;;;;;21.42;62.92;98066.00;6864425;28;20209;-83
2023/07/28 05:12:19;;;;;;;6.43;4.03;;;;;;;21.80;62.12;98059.50;6874602;28;20296;-82
2023/07/28 05:15:40;;;;;;;5.47;4.07;;;;;;;22.11;61.50;98057.94;6871447;28;20669;-84
2023/07/28 05:19:02;;;;;;;4.80;3.87;;;;;;;22.06;61.77;98047.06;6869358;28;20232;-84
2023/07/28 05:22:25;;;;;;;4.80;4.17;;;;;;;21.95;61.86;98056.56;6871443;28;20213;-83
2023/07/28 05:25:48;;;;;;;6.43;4.17;;;;;;;22.17;61.80;98089.72;6885624;28;20327;-84
2023/07/28 05:29:10;;;;;;;5.53;3.97;;;;;;;21.64;62.97;98089.03;6897398;28;20338;-84
2023/07/28 05:32:32;;;;;;;4.10;3.70;;;;;;;21.83;62.80;98061.66;6897549;28;20235;-84
2023/07/28 05:36:00;;;;;;;4.63;4.23;;;;;;;22.17;62.60;98090.53;6897038;28;20684;-84
2023/07/28 05:39:23;;;;;;;5.50;4.40;;;;;;;22.24;61.76;98099.22;6897748;28;20310;-84
2023/07/28 05:42:44;;;;;;;6.03;4.10;;;;;;;22.18;62.19;98092.16;6897894;28;20204;-85
2023/07/28 05:46:06;;;;;;;5.17;4.67;;;;;;;22.00;62.76;98095.72;6896649;28;20252;-85
2023/07/28 05:49:27;;;;;;;4.20;3.90;;;;;;;22.40;62.66;98097.88;6896170;28;20319;-85
2023/07/28 05:52:49;;;;;;;5.23;4.73;;;;;;;22.31;62.95;98109.84;6896639;28;20698;-84
2023/07/28 05:56:12;;;;;;;4.53;4.13;;;;;;;22.40;62.78;98097.88;6898831;28;20259;-84
2023/07/28 05:59:33;;;;;;;4.53;3.97;;;;;;;21.98;62.36;98091.63;6900169;28;20291;-84
2023/07/28 06:02:54;;;;;;;4.87;4.37;;;;;;;22.28;63.24;98118.66;6900677;28;20699;-84
2023/07/28 06:06:16;;;;;;;4.10;3.77;;;;;;;22.36;63.59;98127.06;6899299;28;20228;-83
2023/07/28 06:09:38;;;;;;;4.97;4.47;;;;;;;22.53;62.59;98129.31;6900345;28;20228;-84
2023/07/28 06:13:01;;;;;;;6.90;3.97;;;;;;;22.81;61.94;98123.63;6896529;28;20201;-84
2023/07/28 06:16:23;;;;;;;4.70;4.00;;;;;;;22.97;60.87;98125.03;6901007;28;20793;-84
2023/07/28 06:19:45;;;;;;;4.40;4.00;;;;;;;22.85;61.63;98108.19;6923266;28;20224;-84
2023/07/28 06:23:07;;;;;;;5.43;4.63;;;;;;;22.39;61.28;98029.50;6923169;28;20207;-85
2023/07/28 06:26:28;;;;;;;5.57;4.97;;;;;;;22.96;61.00;98131.63;6922435;28;20318;-84
2023/07/28 06:29:51;;;;;;;5.50;4.80;;;;;;;22.46;61.75;98077.50;6917008;28;20310;-85
2023/07/28 06:33:12;;;;;;;6.33;5.00;;;;;;;22.77;62.07;98138.28;6894980;28;20239;-84
2023/07/28 06:36:34;;;;;;;6.30;4.97;;;;;;;22.66;62.52;98123.06;6899057;28;20236;-85
2023/07/28 06:39:56;;;;;;;7.27;5.60;;;;;;;22.50;63.48;98121.66;6897035;28;20826;-85
2023/07/28 06:43:18;;;;;;;5.47;4.87;;;;;;;22.78;63.06;98131.66;6894683;28;20280;-84
2023/07/28 06:46:41;;;;;;;8.03;5.40;;;;;;;22.37;64.12;98139.66;6893200;28;20231;-85
2023/07/28 06:50:02;;;;;;;5.37;4.87;;;;;;;22.62;63.72;98142.09;6894598;28;20399;-85
2023/07/28 06:53:24;;;;;;;7.70;5.73;;;;;;;22.50;64.73;98160.13;6917895;28;20562;-84
2023/07/28 06:56:45;;;;;;;6.83;5.30;;;;;;;22.63;64.33;98160.22;6929135;28;20266;-84
2023/07/28 07:00:09;;;;;;;6.03;5.27;;;;;;;22.84;63.69;98160.72;6913888;28;20308;-85
2023/07/28 07:03:32;;;;;;;5.20;4.70;;;;;;;22.95;63.16;98167.69;6917808;28;20264;-84
2023/07/28 07:06:53;;;;;;;5.50;4.70;;;;;;;23.07;62.42;98155.09;6925786;28;20320;-85
2023/07/28 07:10:17;;;;;;;5.37;4.93;;;;;;;23.09;62.70;98157.53;6920622;28;20263;-85
2023/07/28 07:13:40;;;;;;;5.90;4.27;;;;;;;23.22;62.81;98152.13;6922910;28;20327;-84
2023/07/28 07:17:02;;;;;;;6.10;4.77;;;;;;;22.89;62.74;98091.91;6925348;28;20216;-84
2023/07/28 07:20:25;;;;;;;4.80;4.40;;;;;;;23.57;62.58;98154.22;6927001;28;20232;-84
2023/07/28 07:23:47;;;;;;;5.70;5.10;;;;;;;23.63;62.39;98166.75;6928725;28;20286;-84
2023/07/28 07:27:10;;;;;;;5.20;4.73;;;;;;;23.57;62.18;98158.88;6870576;28;20228;-85
2023/07/28 07:30:33;;;;;;;5.80;4.70;;;;;;;23.57;63.09;98169.91;6873074;28;20640;-84
2023/07/28 07:33:54;;;;;;;5.00;4.60;;;;;;;23.67;62.97;98176.03;6866385;28;20295;-85
2023/07/28 07:37:17;;;;;;;5.00;4.60;;;;;;;23.79;61.84;98181.03;6866778;28;20343;-85
2023/07/28 07:40:39;;;;;;;6.57;4.90;;;;;;;23.40;63.20;98177.91;6880580;28;20228;-84
2023/07/28 07:44:00;;;;;;;5.43;4.90;;;;;;;23.69;62.93;98173.81;6891621;28;20235;-84
2023/07/28 07:47:22;;;;;;;5.50;4.90;;;;;;;23.79;62.05;98168.06;6886068;28;20317;-84
2023/07/28 07:50:48;;;;;;;5.83;4.87;;;;;;;23.67;62.15;98120.16;6877502;28;20218;-85
2023/07/28 07:54:18;;;;;;;6.50;4.97;;;;;;;24.33;61.55;98183.81;6904184;28;20196;-85
2023/07/28 07:57:39;;;;;;;5.83;4.93;;;;;;;24.49;61.10;98165.81;6891200;28;20248;-84
2023/07/28 08:01:01;;;;;;;6.20;4.70;;;;;;;24.78;60.02;98191.88;6890870;28;20242;-84
2023/07/28 08:04:23;;;;;;;4.77;4.37;;;;;;;25.00;58.22;98191.91;6890715;28;20272;-84
2023/07/28 08:07:47;;;;;;;5.00;4.50;;;;;;;24.87;57.65;98189.22;6864755;28;20228;-85
2023/07/28 08:11:12;;;;;;;6.57;5.33;;;;;;;24.50;60.37;98190.31;6863394;28;20271;-83
2023/07/28 08:14:34;;;;;;;7.00;4.50;;;;;;;24.65;60.28;98197.47;6864958;28;20287;-84
2023/07/28 08:17:55;;;;;;;6.30;5.07;;;;;;;24.77;59.84;98194.97;6876568;28;20269;-82
2023/07/28 08:21:17;;;;;;;5.70;5.20;;;;;;;24.74;60.44;98198.34;6890021;28;20228;-83
2023/07/28 08:24:38;;;;;;;5.17;4.70;;;;;;;24.68;60.61;98199.59;6891241;28;20215;-83
2023/07/28 08:28:01;;;;;;;5.50;4.83;;;;;;;24.51;59.89;98208.47;6891654;28;20312;-82
2023/07/28 08:31:25;;;;;;;4.90;4.50;;;;;;;24.64;60.07;98212.34;6887603;28;20225;-83
2023/07/28 08:34:47;;;;;;;5.73;4.87;;;;;;;24.45;60.78;98214.41;6889495;28;20202;-83
2023/07/28 08:38:08;;;;;;;6.00;4.70;;;;;;;24.36;60.90;98175.72;6890217;28;20342;-83
2023/07/28 08:41:30;;;;;;;5.90;4.80;;;;;;;24.60;61.26;98214.91;6893445;28;20234;-83
2023/07/28 08:44:53;;;;;;;6.87;6.10;;;;;;;24.69;61.50;98232.38;6893933;28;20263;-83
2023/07/28 08:48:14;;;;;;;7.70;6.20;;;;;;;24.74;61.32;98231.44;6893325;28;20277;-82
2023/07/28 08:51:42;;;;;;;6.13;4.80;;;;;;;24.59;60.74;98234.53;6892357;28;20250;-82
2023/07/28 08:55:04;;;;;;;7.40;5.10;;;;;;;24.29;61.44;98233.19;6896880;28;20196;-84
2023/07/28 08:58:25;;;;;;;5.60;4.90;;;;;;;24.47;59.38;98234.19;6895944;28;20197;-85
2023/07/28 09:01:50;;;;;;;5.10;4.60;;;;;;;24.79;58.94;98212.81;6896342;28;20325;-82
2023/07/28 09:05:19;;;;;;;5.23;4.73;;;;;;;24.71;58.10;98174.16;6895834;28;20287;-82
2023/07/28 09:08:41;;;;;;;6.03;4.80;;;;;;;25.37;57.23;98238.47;6896232;28;20696;-83
2023/07/28 09:12:03;;;;;;;4.80;4.40;;;;;;;25.34;56.76;98252.94;6893225;28;20261;-83
2023/07/28 09:15:24;;;;;;;8.67;6.37;;;;;;;25.27;56.99;98246.22;6893518;28;20610;-83
2023/07/28 09:18:48;;;;;;;5.93;4.87;;;;;;;25.47;55.97;98242.94;6892878;28;20222;-84
2023/07/28 09:22:09;;;;;;;9.07;4.53;;;;;;;25.52;56.24;98243.63;6892965;28;20239;-82
2023/07/28 09:25:31;;;;;;;5.67;5.17;;;;;;;25.48;56.90;98239.88;6893243;28;20219;-84
2023/07/28 09:28:55;;;;;;;5.33;4.87;;;;;;;25.28;56.85;98236.78;6892448;28;20223;-83
2023/07/28 09:32:17;;;;;;;5.47;4.53;;;;;;;25.07;56.23;98217.13;6892247;28;20260;-82
2023/07/28 09:35:50;;;;;;;5.70;4.70;;;;;;;25.80;55.59;98250.63;6891667;28;20230;-84
2023/07/28 09:39:12;;;;;;;5.80;4.50;;;;;;;25.90;55.00;98236.56;6884982;28;20226;-82
2023/07/28 09:42:34;;;;;;;4.80;4.40;;;;;;;26.07;54.78;98244.94;6893924;28;20260;-83
2023/07/28 09:45:56;;;;;;;6.57;5.13;;;;;;;25.41;54.77;98238.66;6890685;28;20204;-83
2023/07/28 09:49:22;;;;;;;5.93;5.17;;;;;;;25.00;54.90;98108.34;6891567;28;20258;-82
2023/07/28 09:52:56;;;;;;;6.17;5.57;;;;;;;25.65;55.99;98204.06;6891334;28;20200;-83
2023/07/28 09:56:22;;;;;;;5.33;4.77;;;;;;;26.13;54.48;98207.75;6875201;28;20201;-83
2023/07/28 09:59:49;;;;;;;5.50;5.00;;;;;;;25.75;54.13;98223.16;6891372;28;20602;-84
2023/07/28 10:03:20;;;;;;;8.07;5.17;;;;;;;25.42;54.77;98163.84;6891047;28;20209;-85
2023/07/28 10:06:45;;;;;;;6.07;5.47;;;;;;;26.71;53.73;98229.56;6889073;28;20605;-84
2023/07/28 10:10:18;;;;;;;5.83;5.00;;;;;;;26.23;52.95;98151.34;6889203;28;20241;-83
2023/07/28 10:13:41;;;;;;;5.47;4.90;;;;;;;26.17;52.06;98127.75;6890445;28;20209;-82
2023/07/28 10:17:34;;;;;;;5.80;4.90;;;;;;;27.23;52.15;98185.00;6890000;28;20208;-84
2023/07/28 10:21:07;;;;;;;4.97;4.43;;;;;;;27.41;51.48;98236.44;6878285;28;20231;-83
2023/07/28 10:24:51;;;;;;;7.27;4.13;;;;;;;27.22;51.08;98237.94;6874611;28;20200;-86
2023/07/28 10:28:31;;;;;;;7.13;3.53;;;;;;;27.17;50.00;98225.06;6890672;28;20230;-84
2023/07/28 10:31:53;;;;;;;5.27;3.90;;;;;;;27.58;51.45;98239.19;6891891;28;20227;-84
2023/07/28 10:35:23;;;;;;;4.10;3.70;;;;;;;28.34;49.88;98243.72;6890962;28;20339;-87
2023/07/28 10:38:45;;;;;;;3.90;2.93;;;;;;;28.15;48.88;98239.72;6871554;28;20247;-83
2023/07/28 10:42:08;;;;;;;3.40;3.10;;;;;;;27.57;48.91;98232.03;6871740;28;20223;-84
2023/07/28 10:45:33;;;;;;;3.20;2.90;;;;;;;28.30;48.05;98217.00;6886375;28;20355;-84
2023/07/28 10:48:55;;;;;;;4.50;3.07;;;;;;;27.93;48.73;98245.50;6884766;28;20280;-84
2023/07/28 10:52:17;;;;;;;3.50;3.20;;;;;;;28.35;48.73;98236.19;6893396;28;20223;-83
2023/07/28 10:55:38;;;;;;;6.13;2.80;;;;;;;28.45;48.74;98239.44;6909745;28;20250;-84
2023/07/28 10:59:00;;;;;;;3.17;2.90;;;;;;;28.20;48.45;98240.34;6918861;28;20632;-83
2023/07/28 11:02:23;;;;;;;3.70;2.73;;;;;;;27.76;48.40;98248.28;6917846;28;20216;-82
2023/07/28 11:05:45;;;;;;;3.53;3.23;;;;;;;28.05;47.41;98213.19;6918576;28;20296;-83
2023/07/28 11:09:07;;;;;;;5.10;2.83;;;;;;;28.01;48.74;98236.34;6919629;28;20227;-83
2023/07/28 11:12:30;;;;;;;3.53;2.93;;;;;;;27.68;47.92;98168.78;6905675;28;20216;-84
2023/07/28 11:15:53;;;;;;;4.10;2.90;;;;;;;27.89;48.59;98252.84;6865269;28;20197;-83
2023/07/28 11:19:19;;;;;;;3.20;2.90;;;;;;;27.70;48.09;98252.34;6866927;28;20227;-83
2023/07/28 11:22:41;;;;;;;3.40;3.10;;;;;;;27.59;48.63;98246.38;6865442;28;20198;-84
2023/07/28 11:26:02;;;;;;;3.20;2.90;;;;;;;26.75;51.37;98241.59;6866014;28;20219;-84
2023/07/28 11:29:24;;;;;;;6.20;3.10;;;;;;;27.39;49.16;98247.06;6866477;28;20237;-83
2023/07/28 11:32:46;;;;;;;3.00;2.70;;;;;;;27.05;50.59;98249.78;6866108;28;20251;-84
2023/07/28 11:36:09;;;;;;;3.60;2.70;;;;;;;28.20;48.33;98251.41;6868124;28;20263;-83
2023/07/28 11:39:32;;;;;;;3.30;3.00;;;;;;;28.50;46.96;98244.81;6879528;28;20233;-82
2023/07/28 11:42:55;;;;;;;3.43;2.90;;;;;;;29.29;45.46;98234.47;6865026;28;20216;-88
2023/07/28 11:46:36;;;;;;;2.73;2.53;;;;;;;28.39;46.73;98238.00;6870858;28;20228;-83
2023/07/28 11:50:00;;;;;;;3.30;2.63;;;;;;;28.99;45.38;98235.72;6893808;28;20225;-82
2023/07/28 11:53:23;;;;;;;3.33;2.40;;;;;;;28.66;46.29;98242.28;6866063;28;20236;-83
2023/07/28 11:56:45;;;;;;;6.20;4.20;;;;;;;28.78;46.94;98248.69;6886739;28;20263;-83
2023/07/28 12:00:09;;;;;;;2.83;2.53;;;;;;;29.16;44.84;98230.03;6891758;28;20331;-81
2023/07/28 12:03:31;;;;;;;2.80;2.50;;;;;;;29.56;44.15;98245.06;6892517;28;20616;-82
2023/07/28 12:07:09;;;;;;;3.03;2.40;;;;;;;29.17;45.11;98237.19;6891409;28;20232;-83
2023/07/28 12:10:32;;;;;;;2.63;2.40;;;;;;;29.33;44.16;98234.59;6888416;28;20231;-82
2023/07/28 12:13:54;;;;;;;3.87;2.43;;;;;;;29.07;44.26;98225.69;6890263;28;20717;-83
2023/07/28 12:17:17;;;;;;;2.93;2.13;;;;;;;29.16;44.53;98235.56;6871198;28;20225;-83
2023/07/28 12:20:40;;;;;;;2.50;2.30;;;;;;;29.59;43.27;98230.47;6869693;28;20230;-82
2023/07/28 12:24:01;;;;;;;3.53;2.70;;;;;;;28.61;45.36;98237.72;6865214;28;20212;-82
2023/07/28 12:27:26;;;;;;;3.13;2.83;;;;;;;28.62;46.43;98241.31;6903406;28;20367;-83
2023/07/28 12:30:51;;;;;;;4.57;2.80;;;;;;;28.79;48.19;98253.09;6894403;28;20224;-82
2023/07/28 12:34:13;;;;;;;4.40;2.77;;;;;;;28.66;49.16;98245.84;6895642;28;20572;-81
2023/07/28 12:37:34;;;;;;;2.80;2.50;;;;;;;28.71;48.47;98225.44;6896923;28;20216;-83
2023/07/28 12:40:56;;;;;;;4.20;2.90;;;;;;;28.50;51.34;98250.38;6896270;28;20779;-81
2023/07/28 12:44:21;;;;;;;2.90;2.70;;;;;;;28.09;50.68;98249.38;6892941;28;20304;-81
2023/07/28 12:47:43;;;;;;;3.00;2.70;;;;;;;27.54;50.40;98226.34;6894202;28;20223;-81
2023/07/28 12:51:05;;;;;;;5.13;3.90;;;;;;;28.22;51.37;98248.31;6896201;28;20370;-81
2023/07/28 12:54:26;;;;;;;4.27;3.07;;;;;;;28.31;51.89;98241.59;6896027;28;20208;-81
2023/07/28 12:57:48;;;;;;;3.70;2.77;;;;;;;28.35;52.14;98250.88;6888547;28;20292;-82
2023/07/28 13:01:12;;;;;;;5.00;2.87;;;;;;;28.32;51.46;98246.00;6888768;28;20239;-81
2023/07/28 13:04:34;;;;;;;2.80;2.60;;;;;;;28.38;50.23;98250.22;6894504;28;20586;-81
2023/07/28 13:07:55;;;;;;;4.93;2.47;;;;;;;27.83;50.87;98237.56;6895925;28;20865;-83
2023/07/28 13:11:17;;;;;;;2.67;2.43;;;;;;;27.98;50.92;98251.69;6891603;28;20255;-81
2023/07/28 13:14:38;;;;;;;2.60;2.40;;;;;;;27.80;50.96;98216.03;6896250;28;20295;-81
2023/07/28 13:18:01;;;;;;;2.13;1.97;;;;;;;27.77;50.70;98252.69;6897132;28;20305;-81
2023/07/28 13:21:22;;;;;;;2.20;1.93;;;;;;;27.85;51.46;98247.13;6897013;28;20326;-82
2023/07/28 13:24:44;;;;;;;2.63;2.10;;;;;;;28.04;51.34;98255.09;6897769;28;20216;-81
2023/07/28 13:28:06;;;;;;;2.73;2.30;;;;;;;27.98;51.18;98254.47;6896956;28;20297;-81
2023/07/28 13:31:27;;;;;;;1.97;1.87;;;;;;;27.99;51.52;98236.69;6873676;28;20304;-81
2023/07/28 13:34:50;;;;;;;2.20;2.00;;;;;;;27.78;51.45;98246.03;6871179;28;20224;-81
2023/07/28 13:38:14;;;;;;;3.73;2.27;;;;;;;27.72;49.97;98259.19;6871446;28;20208;-81
2023/07/28 13:41:36;;;;;;;3.40;3.10;;;;;;;27.01;52.06;98259.88;6869432;28;20371;-81
2023/07/28 13:44:57;;;;;;;2.60;2.40;;;;;;;27.39;51.20;98268.38;6869583;28;20212;-81
2023/07/28 13:48:19;;;;;;;2.50;2.30;;;;;;;27.43;52.03;98263.81;6873207;28;20985;-81
2023/07/28 13:51:41;;;;;;;3.17;2.40;;;;;;;27.04;52.64;98267.53;6894519;28;20228;-80
2023/07/28 13:55:04;;;;;;;2.60;2.40;;;;;;;27.12;53.21;98268.66;6897598;28;20216;-81
2023/07/28 13:58:26;;;;;;;7.03;2.97;;;;;;;26.82;54.54;98288.97;6896529;28;20197;-81
2023/07/28 14:01:47;;;;;;;6.27;3.67;;;;;;;26.85;56.30;98294.66;6894276;28;20293;-82
2023/07/28 14:05:09;;;;;;;3.80;3.47;;;;;;;26.69;57.21;98293.50;6893845;28;20266;-82
2023/07/28 14:08:32;;;;;;;3.70;3.40;;;;;;;26.33;58.33;98319.69;6892793;28;20231;-80
2023/07/28 14:11:54;;;;;;;5.67;3.93;;;;;;;26.04;59.54;98314.66;6892753;28;20229;-80
2023/07/28 14:15:15;;;;;;;4.40;3.70;;;;;;;25.95;60.28;98313.78;6893171;28;20270;-81
2023/07/28 14:18:37;;;;;;;9.17;4.60;;;;;;;25.55;61.51;98300.97;6892761;28;20210;-81
2023/07/28 14:21:58;;;;;;;3.63;3.30;;;;;;;24.80;62.31;98296.38;6891827;28;20305;-81
2023/07/28 14:25:21;;;;;;;4.37;3.90;;;;;;;24.60;63.90;98281.06;6898721;28;20246;-82
2023/07/28 14:28:44;;;;;;;5.37;4.17;;;;;;;24.39;63.71;98243.19;6896200;28;20272;-83
2023/07/28 14:32:06;;;;;;;4.17;3.73;;;;;;;24.51;63.27;98229.72;6909928;28;20266;-82
2023/07/28 14:35:27;;;;;;;4.90;3.50;;;;;;;24.46;62.76;98229.81;6911152;28;20280;-82
2023/07/28 14:38:49;;;;;;;5.00;3.20;;;;;;;24.99;62.09;98231.69;6907035;28;20208;-82
2023/07/28 14:42:12;;;;;;;4.17;3.60;;;;;;;25.04;61.82;98288.66;6895498;28;20255;-82
2023/07/28 14:45:33;;;;;;;3.30;3.00;;;;;;;25.28;60.93;98312.13;6892760;28;20239;-82
2023/07/28 14:48:56;;;;;;;4.23;3.50;;;;;;;25.18;62.93;98278.41;6885494;28;20226;-82
2023/07/28 14:52:17;;;;;;;4.30;3.90;;;;;;;25.32;62.51;98296.56;6892438;28;20596;-82
2023/07/28 14:55:39;;;;;;;5.53;4.37;;;;;;;25.36;62.72;98286.53;6890850;28;20233;-81
2023/07/28 14:59:02;;;;;;;4.23;3.47;;;;;;;25.59;61.83;98296.47;6891571;28;20291;-82
2023/07/28 15:02:24;;;;;;;5.93;4.10;;;;;;;25.06;61.50;98265.16;6891497;28;20220;-82
2023/07/28 15:05:45;;;;;;;4.93;4.40;;;;;;;24.83;62.29;98273.72;6891713;28;20318;-82
2023/07/28 15:09:07;;;;;;;5.27;4.60;;;;;;;25.32;62.00;98285.53;6902586;28;20300;-82
2023/07/28 15:12:28;;;;;;;4.43;4.13;;;;;;;25.25;61.82;98292.63;6903517;28;20679;-82
2023/07/28 15:15:51;;;;;;;4.10;3.70;;;;;;;25.30;61.44;98296.06;6897824;28;20418;-81
2023/07/28 15:19:13;;;;;;;3.70;3.27;;;;;;;25.38;61.21;98286.25;6894333;28;20236;-81
2023/07/28 15:22:34;;;;;;;4.53;4.13;;;;;;;24.96;62.91;98298.47;6898105;28;20209;-80
2023/07/28 15:25:57;;;;;;;4.90;3.77;;;;;;;25.25;61.49;98276.06;6896134;28;20353;-81
2023/07/28 15:29:18;;;;;;;5.43;3.97;;;;;;;25.34;61.89;98257.63;6896614;28;20229;-81
2023/07/28 15:32:41;;;;;;;6.03;3.97;;;;;;;25.62;61.21;98276.53;6895854;28;20234;-82
2023/07/28 15:36:03;;;;;;;6.83;3.60;;;;;;;26.07;59.41;98297.44;6894922;28;20891;-81
2023/07/28 15:39:25;;;;;;;5.20;3.77;;;;;;;25.85;60.96;98311.28;6895015;28;20221;-81
2023/07/28 15:42:46;;;;;;;4.30;3.90;;;;;;;25.89;60.33;98281.88;6896355;28;20322;-81
2023/07/28 15:46:08;;;;;;;5.17;4.10;;;;;;;26.13;60.04;98296.16;6894442;28;20705;-83
2023/07/28 15:49:30;;;;;;;5.33;3.80;;;;;;;26.38;58.86;98300.19;6893051;28;20314;-82
2023/07/28 15:52:55;;;;;;;4.43;4.00;;;;;;;26.34;59.00;98291.72;6901601;28;20207;-82
2023/07/28 15:56:18;;;;;;;4.60;4.20;;;;;;;26.36;58.79;98294.19;6897302;28;20348;-83